Time;durP1;ratioP1;P1;durP2;ratioP2;P2;SDS_P1;SDS_P2;PMS_P1;PMS_P2;Temp;Humidity;BMP_temperature;BMP_pressure;BME280_temperature;BME280_humidity;BME280_pressure;Samples;Min_cycle;Max_cycle;Signal;HPM_P1;HPM_P2
2024/04/18 00:01:18;;;;;;;13.63;4.50;;;;;;;9.20;72.72;101690.13;5528353;25;20009;-45
2024/04/18 00:03:43;;;;;;;6.63;4.03;;;;;;;9.40;72.72;101688.13;5556797;25;20012;-43
2024/04/18 00:06:09;;;;;;;6.72;4.05;;;;;;;9.34;72.56;101694.91;5526129;25;19998;-45
2024/04/18 00:08:34;;;;;;;7.60;4.40;;;;;;;9.36;71.87;101700.19;5523283;25;20013;-45
2024/04/18 00:10:59;;;;;;;8.20;4.07;;;;;;;9.41;71.35;101697.72;5526756;25;20013;-45
2024/04/18 00:13:25;;;;;;;6.55;3.65;;;;;;;9.46;70.66;101699.63;5522355;25;19994;-42
2024/04/18 00:15:51;;;;;;;8.10;4.05;;;;;;;9.42;70.55;101699.47;5523424;25;19998;-43
2024/04/18 00:18:16;;;;;;;5.45;3.50;;;;;;;9.40;70.60;101703.75;5522604;26;20005;-42
2024/04/18 00:20:43;;;;;;;8.18;4.20;;;;;;;9.21;71.05;101700.56;5524060;25;20021;-45
2024/04/18 00:23:08;;;;;;;8.02;3.67;;;;;;;9.22;71.08;101701.44;5524240;25;20420;-42
2024/04/18 00:25:34;;;;;;;6.50;3.80;;;;;;;9.21;71.35;101703.16;5524542;25;20009;-43
2024/04/18 00:27:59;;;;;;;8.20;4.00;;;;;;;9.19;71.35;101697.03;5524630;25;20001;-42
2024/04/18 00:30:25;;;;;;;7.85;3.75;;;;;;;9.18;71.44;101700.47;5523529;25;19998;-42
2024/04/18 00:32:50;;;;;;;5.90;3.92;;;;;;;9.15;71.43;101704.72;5524574;25;20068;-45
2024/04/18 00:35:15;;;;;;;7.22;3.97;;;;;;;9.08;71.25;101705.34;5524382;25;20360;-43
2024/04/18 00:37:41;;;;;;;6.47;3.85;;;;;;;9.06;71.12;101710.50;5524327;25;20047;-41
2024/04/18 00:40:06;;;;;;;8.25;3.72;;;;;;;9.01;70.62;101708.56;5525291;25;20008;-46
2024/04/18 00:42:32;;;;;;;7.13;3.95;;;;;;;8.88;71.16;101707.28;5525265;25;20412;-41
2024/04/18 00:44:57;;;;;;;5.78;3.60;;;;;;;8.82;70.94;101714.88;5525237;25;20008;-42
2024/04/18 00:47:22;;;;;;;6.32;3.60;;;;;;;8.83;70.79;101709.72;5523920;25;20050;-46
2024/04/18 00:49:48;;;;;;;7.78;3.92;;;;;;;8.72;70.45;101718.84;5525313;25;20033;-42
2024/04/18 00:52:20;;;;;;;7.22;3.72;;;;;;;8.66;70.79;101713.44;5525946;25;19997;-44
2024/04/18 00:54:47;;;;;;;6.28;3.65;;;;;;;8.59;70.63;101719.28;5525296;25;20078;-42
2024/04/18 00:57:13;;;;;;;7.30;4.05;;;;;;;8.53;70.84;101721.69;5525289;25;20009;-42
2024/04/18 00:59:38;;;;;;;8.10;3.75;;;;;;;8.45;71.57;101721.41;5528735;25;20353;-42
2024/04/18 01:02:04;;;;;;;7.50;4.10;;;;;;;8.41;71.32;101731.66;5531500;25;20001;-41
2024/04/18 01:04:30;;;;;;;5.95;3.70;;;;;;;8.42;71.43;101733.38;5530396;25;20012;-42
2024/04/18 01:06:56;;;;;;;6.82;3.72;;;;;;;8.34;71.18;101733.13;5530788;25;19993;-43
2024/04/18 01:09:21;;;;;;;7.15;3.85;;;;;;;8.27;71.31;101730.22;5524983;25;20001;-44
2024/04/18 01:11:46;;;;;;;9.18;4.22;;;;;;;8.24;71.52;101738.78;5523900;25;20016;-41
2024/04/18 01:14:12;;;;;;;7.18;3.83;;;;;;;8.22;71.21;101740.44;5524169;25;19997;-42
2024/04/18 01:16:37;;;;;;;7.88;4.03;;;;;;;8.18;71.55;101748.03;5523186;25;20009;-43
2024/04/18 01:19:07;;;;;;;8.48;4.22;;;;;;;8.08;71.59;101742.53;5523643;25;20511;-42
2024/04/18 01:21:32;;;;;;;6.60;4.13;;;;;;;8.10;71.44;101746.09;5523454;25;20042;-41
2024/04/18 01:23:57;;;;;;;9.32;4.30;;;;;;;8.10;71.42;101750.38;5525568;25;20033;-47
2024/04/18 01:26:23;;;;;;;9.07;4.22;;;;;;;8.07;71.58;101748.53;5524486;25;20001;-43
2024/04/18 01:28:48;;;;;;;6.80;4.22;;;;;;;8.06;71.52;101756.28;5528283;25;19997;-45
2024/04/18 01:31:13;;;;;;;7.53;4.32;;;;;;;8.05;71.71;101760.56;5529395;25;20012;-42
2024/04/18 01:33:39;;;;;;;8.15;3.97;;;;;;;8.05;72.17;101765.78;5530117;25;20012;-43
2024/04/18 01:36:04;;;;;;;8.95;4.07;;;;;;;7.99;71.67;101762.94;5529117;25;20008;-42
2024/04/18 01:38:29;;;;;;;7.50;4.05;;;;;;;7.98;71.68;101768.09;5526233;25;20006;-42
2024/04/18 01:40:55;;;;;;;6.38;3.88;;;;;;;7.95;71.89;101778.34;5527710;25;19997;-44
2024/04/18 01:43:20;;;;;;;8.60;3.90;;;;;;;7.95;71.86;101774.06;5528149;25;20008;-42
2024/04/18 01:45:45;;;;;;;7.25;3.95;;;;;;;7.92;72.51;101780.84;5525720;25;20721;-42
2024/04/18 01:48:11;;;;;;;7.05;3.75;;;;;;;8.05;71.96;101781.34;5526369;25;20457;-43
2024/04/18 01:50:36;;;;;;;9.00;4.18;;;;;;;7.98;71.76;101776.78;5529811;25;20009;-42
2024/04/18 01:53:02;;;;;;;8.98;4.13;;;;;;;7.94;72.38;101779.19;5531450;25;19997;-43
2024/04/18 01:55:27;;;;;;;7.25;3.75;;;;;;;7.92;72.33;101781.75;5530502;25;19998;-45
2024/04/18 01:57:52;;;;;;;7.75;3.63;;;;;;;7.92;72.15;101788.66;5530624;25;19997;-41
2024/04/18 02:00:18;;;;;;;7.47;4.40;;;;;;;7.84;72.03;101792.63;5527906;25;20029;-42
2024/04/18 02:02:43;;;;;;;10.32;4.15;;;;;;;7.84;72.23;101790.94;5523815;25;20440;-41
2024/04/18 02:05:08;;;;;;;10.13;4.25;;;;;;;7.86;72.31;101791.00;5524001;25;19997;-42
2024/04/18 02:07:34;;;;;;;9.75;4.20;;;;;;;7.85;71.83;101791.81;5522366;25;20008;-43
2024/04/18 02:09:59;;;;;;;8.00;4.00;;;;;;;7.84;72.04;101790.94;5523609;25;19997;-42
2024/04/18 02:12:24;;;;;;;5.75;3.55;;;;;;;7.87;71.96;101795.38;5522974;25;19997;-43
2024/04/18 02:14:49;;;;;;;7.75;3.92;;;;;;;7.84;72.17;101797.84;5523096;25;19998;-41
2024/04/18 02:17:15;;;;;;;8.82;4.07;;;;;;;7.80;72.25;101793.34;5523854;25;19998;-44
2024/04/18 02:19:40;;;;;;;6.95;3.95;;;;;;;7.81;72.26;101802.94;5523950;25;20400;-44
2024/04/18 02:22:05;;;;;;;6.47;3.55;;;;;;;7.79;72.29;101801.97;5524408;25;20444;-41
2024/04/18 02:24:32;;;;;;;10.63;4.30;;;;;;;7.71;72.43;101805.13;5522313;25;20054;-42
2024/04/18 02:26:57;;;;;;;7.30;4.05;;;;;;;7.71;73.03;101799.06;5522297;25;20012;-43
2024/04/18 02:29:23;;;;;;;8.48;4.13;;;;;;;7.64;73.83;101805.72;5522608;25;20281;-43
2024/04/18 02:31:48;;;;;;;8.43;4.25;;;;;;;7.67;74.53;101815.34;5522808;25;20001;-43
2024/04/18 02:34:13;;;;;;;9.43;4.25;;;;;;;7.71;74.14;101817.22;5522782;25;20343;-41
2024/04/18 02:36:39;;;;;;;6.00;3.65;;;;;;;7.74;73.09;101823.41;5521801;25;20009;-45
2024/04/18 02:39:04;;;;;;;7.03;3.70;;;;;;;7.72;72.61;101814.72;5522025;25;20049;-42
2024/04/18 02:41:29;;;;;;;7.57;3.92;;;;;;;7.65;73.20;101822.19;5521911;25;20002;-41
2024/04/18 02:43:55;;;;;;;7.93;4.10;;;;;;;7.60;73.37;101818.50;5522834;25;20120;-41
2024/04/18 02:46:21;;;;;;;8.40;4.05;;;;;;;7.57;72.83;101821.84;5521780;25;20008;-46
2024/04/18 02:48:47;;;;;;;8.52;4.10;;;;;;;7.52;73.51;101823.38;5522723;25;19993;-40
2024/04/18 02:51:12;;;;;;;8.27;4.25;;;;;;;7.58;73.00;101834.00;5521903;25;20077;-43
2024/04/18 02:53:37;;;;;;;6.70;4.07;;;;;;;7.58;72.71;101839.19;5521957;25;20008;-44
2024/04/18 02:56:03;;;;;;;5.53;3.58;;;;;;;7.57;72.68;101844.31;5522368;25;20074;-41
2024/04/18 02:58:28;;;;;;;9.70;4.28;;;;;;;7.54;72.77;101846.81;5522138;25;20496;-43
2024/04/18 03:00:53;;;;;;;8.27;4.20;;;;;;;7.50;72.91;101855.31;5521734;25;20073;-42
2024/04/18 03:03:19;;;;;;;7.05;4.03;;;;;;;7.48;72.33;101850.03;5521670;25;20722;-41
2024/04/18 03:05:44;;;;;;;8.32;4.20;;;;;;;7.48;72.54;101862.13;5520950;25;20008;-44
2024/04/18 03:08:09;;;;;;;8.68;5.03;;;;;;;7.45;72.85;101864.56;5521133;25;19997;-41
2024/04/18 03:10:35;;;;;;;9.85;4.93;;;;;;;7.46;72.86;101854.28;5521741;25;20005;-41
2024/04/18 03:13:00;;;;;;;9.40;4.45;;;;;;;7.49;73.20;101856.13;5521807;25;20002;-42
2024/04/18 03:15:25;;;;;;;9.05;4.68;;;;;;;7.47;72.75;101861.25;5520940;25;20005;-42
2024/04/18 03:17:51;;;;;;;9.07;4.60;;;;;;;7.46;72.60;101855.97;5520961;25;20040;-42
2024/04/18 03:20:17;;;;;;;8.63;4.95;;;;;;;7.45;72.56;101860.28;5522163;25;20012;-41
2024/04/18 03:22:43;;;;;;;9.65;5.63;;;;;;;7.42;72.85;101859.28;5521893;25;20456;-42
2024/04/18 03:25:08;;;;;;;10.02;4.95;;;;;;;7.42;73.18;101859.28;5521794;25;20002;-42
2024/04/18 03:27:34;;;;;;;11.10;5.13;;;;;;;7.45;72.88;101869.75;5521126;25;19997;-42
2024/04/18 03:29:59;;;;;;;11.65;5.13;;;;;;;7.43;72.72;101872.31;5522102;25;20004;-43
2024/04/18 03:32:25;;;;;;;12.48;5.38;;;;;;;7.41;73.42;101866.16;5525233;25;19998;-42
2024/04/18 03:34:51;;;;;;;9.50;5.25;;;;;;;7.41;73.00;101879.16;5528458;25;19997;-43
2024/04/18 03:37:16;;;;;;;11.77;5.70;;;;;;;7.34;72.94;101869.31;5526729;25;19998;-42
2024/04/18 03:39:41;;;;;;;11.85;5.85;;;;;;;7.33;73.17;101871.03;5522399;25;19997;-42
2024/04/18 03:42:07;;;;;;;10.32;5.53;;;;;;;7.40;72.47;101874.78;5526534;25;20333;-44
2024/04/18 03:44:32;;;;;;;11.13;5.28;;;;;;;7.37;73.10;101879.84;5527431;25;20027;-41
2024/04/18 03:46:57;;;;;;;9.18;5.20;;;;;;;7.39;73.05;101887.66;5524950;25;20676;-40
2024/04/18 03:49:23;;;;;;;11.70;5.80;;;;;;;7.39;73.22;101877.28;5521856;25;20400;-43
2024/04/18 03:51:48;;;;;;;11.13;5.80;;;;;;;7.44;73.13;101884.44;5525910;25;19997;-42
2024/04/18 03:54:13;;;;;;;12.10;5.50;;;;;;;7.43;73.53;101889.59;5525801;25;20443;-41
2024/04/18 03:56:39;;;;;;;9.50;5.63;;;;;;;7.39;73.41;101885.97;5523996;25;20440;-42
2024/04/18 03:59:04;;;;;;;11.57;5.60;;;;;;;7.36;72.91;101893.63;5522423;25;20408;-42
2024/04/18 04:01:29;;;;;;;11.60;5.97;;;;;;;7.36;73.21;101897.94;5524801;25;20001;-42
2024/04/18 04:03:56;;;;;;;11.07;5.93;;;;;;;7.25;74.10;101903.56;5525256;25;19997;-43
2024/04/18 04:06:21;;;;;;;13.95;6.55;;;;;;;7.28;73.37;101908.84;5524800;25;20450;-42
2024/04/18 04:08:47;;;;;;;12.70;7.00;;;;;;;7.25;73.96;101902.66;5524858;25;20009;-42
2024/04/18 04:11:13;;;;;;;13.48;6.97;;;;;;;7.21;75.09;101908.53;5524808;25;20074;-42
2024/04/18 04:13:38;;;;;;;14.63;7.07;;;;;;;7.30;75.22;101915.00;5524721;25;20001;-42
2024/04/18 04:16:04;;;;;;;12.60;6.80;;;;;;;7.44;74.41;101917.31;5525243;25;20012;-43
2024/04/18 04:18:29;;;;;;;17.60;7.95;;;;;;;7.36;76.12;101922.16;5530945;25;20416;-45
2024/04/18 04:20:54;;;;;;;14.48;7.72;;;;;;;7.38;75.93;101923.09;5530056;25;20002;-41
2024/04/18 04:23:20;;;;;;;12.20;7.00;;;;;;;7.48;75.68;101927.00;5525640;25;20070;-41
2024/04/18 04:25:45;;;;;;;12.75;7.45;;;;;;;7.60;74.83;101927.50;5524250;25;20008;-41
2024/04/18 04:28:10;;;;;;;15.65;7.85;;;;;;;7.64;74.29;101922.50;5524487;25;20021;-40
2024/04/18 04:30:35;;;;;;;14.90;8.02;;;;;;;7.66;74.29;101931.25;5523686;25;20367;-42
2024/04/18 04:33:01;;;;;;;13.60;7.28;;;;;;;7.62;74.07;101934.50;5524807;25;20001;-42
2024/04/18 04:35:26;;;;;;;13.77;7.70;;;;;;;7.56;74.53;101939.44;5524229;25;20448;-41
2024/04/18 04:37:51;;;;;;;14.98;7.95;;;;;;;7.45;74.60;101942.41;5524661;25;20009;-41
2024/04/18 04:40:17;;;;;;;16.58;8.73;;;;;;;7.43;74.04;101937.19;5524354;25;19993;-41
2024/04/18 04:42:42;;;;;;;15.13;7.78;;;;;;;7.45;73.77;101939.81;5524145;25;20451;-41
2024/04/18 04:45:07;;;;;;;16.98;7.90;;;;;;;7.47;74.08;101945.97;5524642;25;19997;-40
2024/04/18 04:47:32;;;;;;;15.02;7.88;;;;;;;7.48;73.72;101951.22;5524515;25;20009;-42
2024/04/18 04:49:58;;;;;;;14.23;7.57;;;;;;;7.51;73.91;101947.88;5530441;25;20016;-41
2024/04/18 04:52:24;;;;;;;14.82;7.80;;;;;;;7.56;74.46;101957.63;5530282;25;20015;-43
2024/04/18 04:54:49;;;;;;;14.18;8.05;;;;;;;7.60;75.24;101959.53;5531482;25;20038;-41
2024/04/18 04:57:14;;;;;;;16.08;8.25;;;;;;;7.70;75.20;101966.88;5525960;25;20002;-43
2024/04/18 04:59:40;;;;;;;15.57;8.20;;;;;;;7.84;75.20;101970.06;5523577;25;20092;-43
2024/04/18 05:02:05;;;;;;;16.30;7.68;;;;;;;8.00;75.40;101964.66;5526448;25;19998;-41
2024/04/18 05:04:31;;;;;;;17.63;8.95;;;;;;;8.07;75.40;101960.63;5530066;25;20010;-45
2024/04/18 05:06:56;;;;;;;17.05;9.10;;;;;;;8.13;75.40;101971.25;5530583;25;20005;-41
2024/04/18 05:09:21;;;;;;;17.63;9.30;;;;;;;7.92;77.12;101971.28;5531518;25;19997;-42
2024/04/18 05:11:47;;;;;;;16.75;9.00;;;;;;;7.99;77.11;101983.66;5528904;25;20001;-41
2024/04/18 05:14:13;;;;;;;18.95;8.98;;;;;;;8.25;76.90;101981.25;5529888;25;20418;-43
2024/04/18 05:16:38;;;;;;;16.05;8.95;;;;;;;8.49;76.29;101988.34;5526284;25;20001;-42
2024/04/18 05:19:04;;;;;;;18.00;9.02;;;;;;;8.61;75.97;101987.03;5527483;25;20047;-43
2024/04/18 05:21:29;;;;;;;18.15;9.20;;;;;;;8.69;75.96;101990.84;5524118;25;19997;-44
2024/04/18 05:23:55;;;;;;;19.30;9.32;;;;;;;8.78;76.09;101997.25;5526790;25;20008;-42
2024/04/18 05:26:20;;;;;;;18.35;9.18;;;;;;;8.65;76.72;102002.84;5527185;25;20069;-44
2024/04/18 05:31:29;;;;;;;15.70;8.90;;;;;;;9.03;76.19;102014.69;5525060;25;20096;-41
2024/04/18 05:33:55;;;;;;;15.63;8.55;;;;;;;9.22;76.25;102016.28;5524782;25;20406;-42
2024/04/18 05:36:20;;;;;;;15.25;7.95;;;;;;;9.47;76.51;102016.34;5530662;25;20001;-47
2024/04/18 05:38:45;;;;;;;16.70;8.32;;;;;;;9.63;76.59;102021.28;5530121;25;20074;-41
2024/04/18 05:41:11;;;;;;;27.33;9.23;;;;;;;9.96;76.87;102013.72;5531066;25;20005;-43
2024/04/18 05:43:36;;;;;;;15.73;8.63;;;;;;;10.39;77.26;102018.66;5528002;25;20002;-43
2024/04/18 05:46:01;;;;;;;19.27;8.95;;;;;;;10.70;77.21;102011.81;5523180;25;20008;-42
2024/04/18 05:48:27;;;;;;;17.55;9.10;;;;;;;10.91;76.12;102015.09;5522686;25;19998;-41
2024/04/18 05:50:52;;;;;;;13.43;7.93;;;;;;;11.05;75.61;102012.88;5522934;25;20343;-41
2024/04/18 05:53:18;;;;;;;16.20;7.55;;;;;;;11.11;74.63;102018.25;5523321;25;19997;-42
2024/04/18 05:55:43;;;;;;;13.70;7.15;;;;;;;11.20;74.03;102023.78;5522654;25;19998;-43
2024/04/18 05:58:09;;;;;;;12.50;6.63;;;;;;;11.13;72.28;102022.72;5523353;25;20001;-42
2024/04/18 06:00:34;;;;;;;12.80;5.60;;;;;;;10.88;71.67;102030.63;5523395;25;19997;-40
2024/04/18 06:03:01;;;;;;;13.57;5.20;;;;;;;10.82;72.99;102040.88;5523214;25;20332;-40
2024/04/18 06:05:26;;;;;;;12.07;4.88;;;;;;;10.79;72.57;102039.09;5522426;25;20012;-44
2024/04/18 06:07:52;;;;;;;9.48;4.70;;;;;;;11.02;72.18;102055.44;5523192;25;19993;-44
2024/04/18 06:10:17;;;;;;;11.50;4.45;;;;;;;11.11;71.87;102047.88;5523025;25;20484;-42
2024/04/18 06:12:42;;;;;;;7.20;4.18;;;;;;;10.90;72.05;102055.06;5521580;25;20005;-41
2024/04/18 06:15:08;;;;;;;7.70;3.67;;;;;;;10.81;71.71;102053.03;5522281;25;20009;-41
2024/04/18 06:17:33;;;;;;;8.15;3.85;;;;;;;11.01;71.14;102063.22;5521817;25;20013;-42
2024/04/18 06:19:59;;;;;;;8.30;3.80;;;;;;;10.96;71.12;102071.78;5522555;25;19998;-42
2024/04/18 06:22:24;;;;;;;8.35;3.55;;;;;;;11.24;70.68;102067.38;5522565;25;20001;-46
2024/04/18 06:24:50;;;;;;;12.40;3.70;;;;;;;11.35;70.38;102065.97;5524514;25;20017;-43
2024/04/18 06:27:15;;;;;;;8.80;3.50;;;;;;;11.25;69.63;102062.22;5524018;25;20451;-41
2024/04/18 06:29:41;;;;;;;7.60;3.53;;;;;;;11.37;69.59;102066.91;5522964;25;20005;-41
2024/04/18 06:32:06;;;;;;;6.57;3.70;;;;;;;11.34;69.28;102070.31;5522644;25;20574;-45
2024/04/18 06:34:31;;;;;;;10.95;5.82;;;;;;;11.19;69.00;102061.16;5521604;25;20340;-44
2024/04/18 06:36:57;;;;;;;9.00;4.85;;;;;;;11.40;69.62;102070.47;5522166;25;20022;-41
2024/04/18 06:39:23;;;;;;;14.80;6.70;;;;;;;12.12;71.52;102073.41;5521637;25;20009;-43
2024/04/18 06:41:48;;;;;;;12.52;6.05;;;;;;;13.36;70.50;102075.50;5522619;25;20073;-41
2024/04/18 06:44:13;;;;;;;11.90;5.53;;;;;;;14.56;66.94;102066.41;5522381;25;20020;-41
2024/04/18 06:46:39;;;;;;;8.00;4.22;;;;;;;16.02;60.74;102069.25;5521886;25;20032;-43
2024/04/18 06:49:04;;;;;;;7.43;2.83;;;;;;;16.48;50.89;102072.28;5520592;25;20005;-42
2024/04/18 06:51:30;;;;;;;4.82;2.20;;;;;;;16.93;48.27;102080.56;5521519;25;20009;-41
2024/04/18 06:53:55;;;;;;;4.40;2.05;;;;;;;17.19;46.88;102074.56;5522439;25;20499;-41
2024/04/18 06:56:20;;;;;;;3.13;1.80;;;;;;;17.83;45.71;102070.44;5521642;25;19997;-42
2024/04/18 06:58:46;;;;;;;5.00;1.83;;;;;;;17.47;45.16;102078.19;5521960;25;20001;-42
2024/04/18 07:01:11;;;;;;;3.58;1.60;;;;;;;17.79;44.39;102074.84;5522182;25;19998;-41
2024/04/18 07:03:37;;;;;;;5.22;1.60;;;;;;;17.73;44.28;102073.94;5521335;25;19998;-41
2024/04/18 07:06:02;;;;;;;4.93;1.67;;;;;;;18.29;41.44;102067.91;5521615;25;20005;-43
2024/04/18 07:08:28;;;;;;;3.45;1.70;;;;;;;18.57;42.08;102065.28;5521073;25;19997;-41
2024/04/18 07:10:53;;;;;;;3.38;1.50;;;;;;;19.43;42.23;102064.19;5521516;25;20058;-42
2024/04/18 07:13:19;;;;;;;4.03;1.55;;;;;;;19.04;40.45;102075.75;5521844;25;20009;-42
2024/04/18 07:15:44;;;;;;;4.28;1.52;;;;;;;19.18;39.83;102072.22;5521287;25;20052;-41
2024/04/18 07:18:10;;;;;;;3.33;1.30;;;;;;;19.25;38.90;102076.59;5521748;25;20401;-42
2024/04/18 07:20:35;;;;;;;3.35;1.20;;;;;;;19.32;39.05;102076.59;5521525;25;20066;-42
2024/04/18 07:23:00;;;;;;;2.25;1.10;;;;;;;17.82;41.21;102095.94;5521416;25;20081;-44
2024/04/18 07:25:26;;;;;;;3.85;1.45;;;;;;;16.78;44.61;102106.78;5522918;25;20001;-42
2024/04/18 07:27:51;;;;;;;3.13;0.90;;;;;;;14.48;47.76;102121.38;5528829;25;19997;-44
2024/04/18 07:30:16;;;;;;;3.38;1.20;;;;;;;14.19;52.23;102126.09;5530117;25;20069;-43
2024/04/18 07:32:42;;;;;;;2.13;1.30;;;;;;;13.59;55.70;102117.91;5529286;25;19997;-45
2024/04/18 07:35:08;;;;;;;2.40;1.10;;;;;;;13.17;58.04;102111.75;5529328;25;19994;-42
2024/04/18 07:37:33;;;;;;;2.08;1.00;;;;;;;12.54;61.00;102115.44;5526887;25;20005;-42
2024/04/18 07:40:01;;;;;;;3.65;1.20;;;;;;;12.86;60.13;102128.44;5530971;25;20029;-42
2024/04/18 07:42:26;;;;;;;5.70;1.10;;;;;;;12.83;61.79;102128.34;5531310;25;20069;-44
2024/04/18 07:44:51;;;;;;;2.13;1.10;;;;;;;13.34;62.39;102132.22;5530262;25;19998;-46
2024/04/18 07:47:17;;;;;;;2.65;1.15;;;;;;;13.61;60.41;102134.53;5525775;25;20019;-43
2024/04/18 07:49:42;;;;;;;3.00;1.10;;;;;;;13.85;58.77;102131.53;5525445;25;20008;-44
2024/04/18 07:52:10;;;;;;;4.38;1.17;;;;;;;14.09;58.53;102136.34;5523753;26;20016;-40
2024/04/18 07:54:36;;;;;;;3.40;1.20;;;;;;;13.83;58.23;102135.88;5525247;25;19993;-45
2024/04/18 07:57:01;;;;;;;4.93;1.40;;;;;;;13.90;57.09;102135.16;5527290;25;20016;-42
2024/04/18 07:59:26;;;;;;;1.95;1.10;;;;;;;13.67;59.26;102142.53;5525443;25;20010;-42
2024/04/18 08:01:52;;;;;;;3.08;1.00;;;;;;;13.38;56.65;102134.03;5526261;25;19997;-41
2024/04/18 08:04:17;;;;;;;3.47;1.30;;;;;;;13.51;58.63;102143.06;5527110;25;20031;-42
2024/04/18 08:06:42;;;;;;;1.92;1.30;;;;;;;13.74;58.15;102151.41;5527291;25;20009;-45
2024/04/18 08:09:08;;;;;;;1.80;1.10;;;;;;;13.61;58.02;102158.13;5526385;25;20009;-42
2024/04/18 08:11:33;;;;;;;2.53;1.30;;;;;;;13.20;59.23;102156.31;5524997;25;20040;-45
2024/04/18 08:13:58;;;;;;;4.45;1.60;;;;;;;13.58;59.06;102155.44;5525578;25;19998;-43
2024/04/18 08:16:24;;;;;;;2.70;1.20;;;;;;;13.74;58.36;102154.00;5524768;25;20012;-42
2024/04/18 08:18:49;;;;;;;2.40;0.90;;;;;;;13.17;57.10;102158.88;5524620;25;19997;-43
2024/04/18 08:21:14;;;;;;;2.65;1.00;;;;;;;13.71;58.04;102159.22;5524828;25;20020;-42
2024/04/18 08:23:40;;;;;;;3.35;0.98;;;;;;;14.08;56.93;102158.22;5523911;25;20004;-43
2024/04/18 08:26:05;;;;;;;1.65;0.90;;;;;;;14.52;54.86;102156.41;5524439;25;19997;-45
2024/04/18 08:28:31;;;;;;;3.92;0.82;;;;;;;15.22;52.89;102163.72;5524174;25;20073;-42
2024/04/18 08:30:56;;;;;;;3.30;0.80;;;;;;;15.29;50.04;102160.31;5525797;25;19997;-40
2024/04/18 08:33:21;;;;;;;2.60;1.08;;;;;;;14.75;53.17;102173.47;5524203;25;20005;-46
2024/04/18 08:35:47;;;;;;;2.42;1.00;;;;;;;15.00;52.35;102170.38;5523921;25;20013;-44
2024/04/18 08:38:12;;;;;;;3.25;0.90;;;;;;;14.91;51.24;102167.59;5522177;25;20470;-45
2024/04/18 08:40:38;;;;;;;2.88;0.88;;;;;;;15.03;51.39;102166.91;5523695;25;19998;-45
2024/04/18 08:43:04;;;;;;;2.25;0.93;;;;;;;15.07;50.16;102171.34;5525065;25;20009;-41
2024/04/18 08:45:35;;;;;;;4.00;1.00;;;;;;;14.62;52.00;102174.13;5524653;25;20820;-41
2024/04/18 08:48:01;;;;;;;2.88;0.90;;;;;;;15.08;51.80;102172.22;5525219;25;20615;-42
2024/04/18 08:50:28;;;;;;;3.90;1.10;;;;;;;15.09;50.06;102188.03;5524842;25;19997;-41
2024/04/18 08:52:55;;;;;;;2.10;1.00;;;;;;;15.11;49.07;102173.19;5525175;25;20009;-46
2024/04/18 08:55:22;;;;;;;5.95;1.00;;;;;;;14.67;51.23;102174.19;5526781;25;20065;-45
2024/04/18 08:58:10;;;;;;;4.50;1.08;;;;;;;14.64;50.47;102180.25;5527154;25;20012;-45
2024/04/18 09:00:40;;;;;;;3.25;1.00;;;;;;;14.22;51.19;102181.22;5522742;25;20341;-41
2024/04/18 09:03:06;;;;;;;5.03;1.10;;;;;;;13.94;52.50;102189.41;5524561;25;20351;-46
2024/04/18 09:05:31;;;;;;;5.75;1.02;;;;;;;14.66;52.13;102190.78;5526822;25;20029;-44
2024/04/18 09:07:56;;;;;;;3.95;1.10;;;;;;;14.28;50.61;102190.94;5526788;25;20016;-44
2024/04/18 09:10:23;;;;;;;3.70;0.88;;;;;;;14.20;49.87;102187.31;5524483;25;20775;-42
2024/04/18 09:12:52;;;;;;;2.28;0.80;;;;;;;14.04;49.65;102185.22;5524272;25;20049;-41
2024/04/18 09:15:18;;;;;;;2.42;0.77;;;;;;;14.59;45.48;102189.78;5524077;25;20011;-41
2024/04/18 09:17:43;;;;;;;4.63;0.73;;;;;;;15.11;46.84;102178.44;5525627;25;20001;-46
2024/04/18 09:20:09;;;;;;;4.00;1.00;;;;;;;14.63;49.84;102185.50;5528260;25;20012;-45
2024/04/18 09:22:35;;;;;;;3.30;0.93;;;;;;;14.50;47.83;102192.28;5529661;25;20005;-40
2024/04/18 09:25:00;;;;;;;2.75;0.80;;;;;;;14.99;48.66;102183.50;5528068;25;20006;-47
2024/04/18 09:27:25;;;;;;;5.25;1.00;;;;;;;14.77;47.39;102182.25;5528829;25;20013;-47
2024/04/18 09:29:51;;;;;;;4.80;1.15;;;;;;;14.68;48.55;102182.09;5524677;25;20060;-43
2024/04/18 09:32:16;;;;;;;12.20;1.15;;;;;;;13.66;51.46;102190.53;5523961;25;19994;-42
2024/04/18 09:34:47;;;;;;;4.60;1.00;;;;;;;13.22;50.89;102186.06;5522898;25;20488;-46
2024/04/18 09:37:15;;;;;;;2.83;0.90;;;;;;;13.34;50.79;102189.84;5523507;25;20505;-44
2024/04/18 09:39:43;;;;;;;5.63;1.10;;;;;;;13.85;50.97;102186.56;5522761;25;20503;-42
2024/04/18 09:42:38;;;;;;;6.03;1.15;;;;;;;13.97;49.63;102180.69;5523391;25;20003;-42
2024/04/18 09:45:05;;;;;;;4.20;0.90;;;;;;;13.98;49.10;102185.09;5523195;25;20008;-42
2024/04/18 09:47:32;;;;;;;3.65;0.90;;;;;;;14.85;46.68;102172.75;5520989;25;20057;-46
2024/04/18 09:49:58;;;;;;;5.45;1.67;;;;;;;14.12;48.55;102187.13;5523257;25;20050;-41
2024/04/18 09:52:24;;;;;;;2.13;1.00;;;;;;;14.16;47.19;102188.06;5523218;25;19998;-42
2024/04/18 09:54:51;;;;;;;2.83;0.90;;;;;;;13.92;46.26;102191.09;5523392;25;20012;-43
2024/04/18 09:57:18;;;;;;;4.95;1.00;;;;;;;14.01;47.03;102187.78;5524989;25;20007;-40
2024/04/18 09:59:45;;;;;;;2.67;0.80;;;;;;;14.38;47.28;102186.81;5524499;25;19997;-45
2024/04/18 10:02:12;;;;;;;5.20;0.95;;;;;;;14.66;44.53;102186.44;5521492;26;20029;-45
2024/04/18 10:04:38;;;;;;;3.08;0.90;;;;;;;14.28;44.98;102190.03;5519619;25;20076;-46
2024/04/18 10:07:08;;;;;;;4.53;1.02;;;;;;;14.02;45.31;102198.31;5523390;25;19997;-41
2024/04/18 10:09:35;;;;;;;4.40;0.70;;;;;;;14.34;44.18;102198.91;5523170;25;19997;-43
2024/04/18 10:12:01;;;;;;;3.08;0.82;;;;;;;14.70;43.52;102179.50;5526081;25;20009;-41
2024/04/18 10:14:27;;;;;;;2.67;0.90;;;;;;;14.88;44.33;102182.44;5530562;25;20443;-43
2024/04/18 10:16:52;;;;;;;5.25;0.98;;;;;;;15.17;42.80;102182.91;5531386;25;20008;-43
2024/04/18 10:19:28;;;;;;;2.90;0.90;;;;;;;14.83;43.08;102197.22;5526452;25;20013;-46
2024/04/18 10:21:56;;;;;;;2.67;0.70;;;;;;;15.23;43.31;102183.00;5522927;25;19997;-40
2024/04/18 10:24:23;;;;;;;5.15;0.80;;;;;;;14.84;44.47;102194.63;5526480;25;19994;-45
2024/04/18 10:26:58;;;;;;;3.45;0.90;;;;;;;15.25;45.30;102187.38;5531749;25;20008;-45
2024/04/18 10:29:26;;;;;;;3.25;1.10;;;;;;;15.17;47.27;102193.41;5529974;25;20012;-42
2024/04/18 10:31:51;;;;;;;5.70;0.90;;;;;;;15.12;47.49;102203.84;5525111;25;19997;-41
2024/04/18 10:34:20;;;;;;;5.03;1.33;;;;;;;14.39;49.54;102207.81;5522724;25;20015;-44
2024/04/18 10:36:45;;;;;;;2.67;1.00;;;;;;;15.02;49.66;102208.06;5521551;25;19994;-42
2024/04/18 10:39:28;;;;;;;4.10;1.08;;;;;;;14.61;49.86;102209.09;5522055;25;20476;-42
2024/04/18 10:41:57;;;;;;;3.63;0.82;;;;;;;14.98;49.21;102198.38;5521933;25;20100;-45
2024/04/18 10:44:24;;;;;;;4.38;0.90;;;;;;;14.90;48.72;102202.59;5521492;25;20487;-41
2024/04/18 10:46:52;;;;;;;2.60;0.90;;;;;;;14.87;47.61;102201.69;5519778;26;20005;-41
2024/04/18 10:49:18;;;;;;;2.67;0.82;;;;;;;15.05;45.80;102203.72;5522042;25;20009;-46
2024/04/18 10:51:45;;;;;;;2.55;0.80;;;;;;;14.66;45.81;102206.53;5521562;25;20012;-44
2024/04/18 10:54:11;;;;;;;6.70;1.15;;;;;;;14.63;46.79;102203.88;5521585;25;20001;-40
2024/04/18 10:56:36;;;;;;;1.98;0.80;;;;;;;14.82;44.38;102196.31;5520970;25;19997;-41
2024/04/18 10:59:02;;;;;;;2.08;0.70;;;;;;;14.72;46.14;102204.03;5521751;25;20009;-42
2024/04/18 11:01:31;;;;;;;2.35;0.77;;;;;;;14.68;45.14;102199.59;5521238;25;20368;-40
2024/04/18 11:03:56;;;;;;;2.28;0.70;;;;;;;15.24;43.18;102198.78;5521617;25;20037;-43
2024/04/18 11:06:21;;;;;;;1.77;0.60;;;;;;;15.56;41.86;102195.75;5519353;25;20050;-49
2024/04/18 11:08:51;;;;;;;6.97;0.95;;;;;;;15.52;43.07;102188.66;5521791;25;20002;-45
2024/04/18 11:11:17;;;;;;;1.92;0.60;;;;;;;15.73;41.32;102187.25;5521509;25;20047;-42
2024/04/18 11:13:43;;;;;;;1.33;0.73;;;;;;;15.55;42.12;102194.00;5520769;25;20050;-41
2024/04/18 11:16:08;;;;;;;1.98;0.70;;;;;;;15.43;42.54;102194.66;5520709;25;20445;-47
2024/04/18 11:18:33;;;;;;;2.08;0.70;;;;;;;15.53;42.05;102199.25;5518774;25;20010;-42
2024/04/18 11:20:59;;;;;;;2.50;0.70;;;;;;;15.49;42.17;102199.16;5519317;25;20016;-42
2024/04/18 11:23:24;;;;;;;1.52;0.70;;;;;;;15.48;42.12;102203.53;5521092;25;20012;-49